Terminal Aerodrome Forecast
Issued by NWS

Home | Current Version | Previous Version | Text Only | Print | Product List | Glossary On
Versions: 1 2 3 4 5 6 7 8 9 10 11 12 13 14 15
000
FTUS44 KBMX 280520
TAFTCL
TAF
KTCL 280520Z 2806/2906 00000KT P6SM OVC250
      TEMPO 2808/2812 5SM BR
     FM281400 21004KT P6SM VCSH OVC100
     FM281800 24007KT P6SM -RA OVC050 PROB30 2818/2822 4SM TSRA
      OVC040CB
     FM290000 24007KT P6SM -RA OVC025=

USA.gov is the U.S. government's official web portal to all federal, state and local government web resources and services.